createdAt,value
2018-10-21T00:01:33.911Z,14.73
2018-10-21T00:04:02.244Z,14.23
2018-10-21T00:06:30.583Z,14.60
2018-10-21T00:08:58.951Z,14.23
2018-10-21T00:11:27.268Z,14.53
2018-10-21T00:13:55.591Z,14.57
2018-10-21T00:16:23.932Z,14.90
2018-10-21T00:18:52.565Z,15.33
2018-10-21T00:21:20.946Z,13.90
2018-10-21T00:23:49.295Z,14.33
2018-10-21T00:26:17.672Z,13.23
2018-10-21T00:28:45.988Z,14.23
2018-10-21T00:31:14.383Z,13.83
2018-10-21T00:33:42.748Z,14.27
2018-10-21T00:36:11.087Z,13.93
2018-10-21T00:38:39.452Z,13.40
2018-10-21T00:41:07.793Z,15.17
2018-10-21T00:43:36.156Z,14.73
2018-10-21T00:46:04.867Z,13.40
2018-10-21T00:48:33.208Z,13.60
2018-10-21T00:51:01.633Z,14.00
2018-10-21T00:53:29.992Z,13.87
2018-10-21T00:55:58.332Z,13.63
2018-10-21T00:58:26.647Z,13.63
2018-10-21T01:00:54.969Z,14.20
2018-10-21T01:03:23.295Z,13.43
2018-10-21T01:05:51.584Z,13.97
2018-10-21T01:08:20.120Z,13.60
2018-10-21T01:10:48.451Z,13.70
2018-10-21T01:13:16.800Z,13.00
2018-10-21T01:15:45.107Z,13.73
2018-10-21T01:18:13.434Z,14.43
2018-10-21T01:20:41.814Z,14.47
2018-10-21T01:23:10.115Z,13.37
2018-10-21T01:25:38.438Z,13.80
2018-10-21T01:28:06.844Z,12.73
2018-10-21T01:30:35.192Z,12.93
2018-10-21T01:33:03.600Z,12.70
2018-10-21T01:35:31.956Z,13.47
2018-10-21T01:38:00.293Z,13.30
2018-10-21T01:40:47.214Z,13.77
2018-10-21T01:43:16.719Z,12.77
2018-10-21T01:45:45.248Z,13.13
2018-10-21T01:48:14.801Z,12.93
2018-10-21T01:50:43.104Z,12.60
2018-10-21T01:53:12.383Z,12.93
2018-10-21T01:55:40.727Z,12.67
2018-10-21T01:58:09.134Z,13.43
2018-10-21T02:00:37.968Z,12.60
2018-10-21T02:03:06.351Z,12.30
2018-10-21T02:05:35.276Z,13.63
2018-10-21T02:08:03.641Z,13.63
2018-10-21T02:10:31.988Z,12.67
2018-10-21T02:13:00.354Z,12.30
2018-10-21T02:15:28.676Z,11.70
2018-10-21T02:17:57.031Z,12.83
2018-10-21T02:20:25.996Z,11.70
2018-10-21T02:22:54.324Z,12.83
2018-10-21T02:25:22.762Z,12.50
2018-10-21T02:27:51.840Z,11.43
2018-10-21T02:30:22.258Z,12.30
2018-10-21T02:32:51.180Z,11.80
2018-10-21T02:35:19.905Z,13.80
2018-10-21T02:37:48.474Z,12.83
2018-10-21T02:41:29.762Z,13.10
2018-10-21T02:43:58.070Z,12.50
2018-10-21T02:46:26.620Z,13.80
2018-10-21T02:48:55.862Z,13.23
2018-10-21T02:51:24.129Z,12.87
2018-10-21T02:53:52.593Z,12.83
2018-10-21T02:56:20.887Z,13.47
2018-10-21T02:58:49.206Z,13.17
2018-10-21T03:01:17.512Z,12.90
2018-10-21T03:03:45.801Z,13.73
2018-10-21T03:06:14.097Z,13.17
2018-10-21T03:08:42.370Z,14.10
2018-10-21T03:11:10.651Z,12.77
2018-10-21T03:13:38.906Z,13.03
2018-10-21T03:16:07.180Z,12.97
2018-10-21T03:18:35.461Z,13.40
2018-10-21T03:21:04.443Z,14.30
2018-10-21T03:23:33.137Z,14.73
2018-10-21T03:26:01.738Z,13.30
2018-10-21T03:28:30.371Z,14.77
2018-10-21T03:30:58.905Z,13.73
2018-10-21T03:33:27.475Z,13.20
2018-10-21T03:35:55.523Z,14.23
2018-10-21T03:38:23.816Z,14.37
2018-10-21T03:40:52.077Z,13.47
2018-10-21T03:43:20.375Z,15.20
2018-10-21T03:45:48.642Z,13.93
2018-10-21T03:48:16.919Z,14.83
2018-10-21T03:50:45.218Z,14.63
2018-10-21T03:53:13.461Z,15.20
2018-10-21T03:55:42.710Z,14.67
2018-10-21T03:58:11.236Z,15.23
2018-10-21T04:00:39.518Z,15.70
2018-10-21T04:03:08.105Z,16.13
2018-10-21T04:05:36.815Z,15.40
2018-10-21T04:08:05.225Z,15.67
2018-10-21T04:10:33.638Z,14.27
2018-10-21T04:13:01.962Z,16.77
2018-10-21T04:15:30.416Z,14.57
2018-10-21T04:17:58.644Z,15.23
2018-10-21T04:20:27.137Z,15.47
2018-10-21T04:22:59.496Z,15.67
2018-10-21T04:25:28.821Z,15.40
2018-10-21T04:27:57.947Z,14.80
2018-10-21T04:30:29.168Z,15.40
2018-10-21T04:34:00.837Z,13.87
2018-10-21T04:36:31.480Z,15.90
2018-10-21T04:39:35.951Z,14.97
2018-10-21T04:42:04.254Z,14.90
2018-10-21T04:44:32.531Z,15.10
2018-10-21T04:47:01.013Z,15.37
2018-10-21T04:49:29.115Z,14.60
2018-10-21T04:51:57.451Z,16.57
2018-10-21T04:54:26.224Z,16.20
2018-10-21T04:56:54.480Z,17.03
2018-10-21T04:59:22.945Z,16.90
2018-10-21T05:01:51.236Z,17.13
2018-10-21T05:04:19.517Z,17.03
2018-10-21T05:06:47.834Z,19.30
2018-10-21T05:09:16.089Z,18.50
2018-10-21T05:11:44.334Z,19.90
2018-10-21T05:14:12.640Z,18.20
2018-10-21T05:16:40.943Z,20.13
2018-10-21T05:19:09.175Z,17.47
2018-10-21T05:21:37.474Z,19.40
2018-10-21T05:24:06.074Z,20.40
2018-10-21T05:26:34.293Z,19.70
2018-10-21T05:29:03.644Z,17.73
2018-10-21T05:31:31.927Z,19.60
2018-10-21T05:34:00.244Z,18.40
2018-10-21T05:36:28.478Z,16.20
2018-10-21T05:38:57.176Z,18.43
2018-10-21T05:41:25.464Z,17.73
2018-10-21T05:43:53.705Z,18.03
2018-10-21T05:46:29.300Z,17.60
2018-10-21T05:48:57.584Z,16.90
2018-10-21T05:51:25.837Z,17.47
2018-10-21T05:53:54.085Z,19.00
2018-10-21T05:56:22.625Z,18.13
2018-10-21T05:58:50.924Z,18.20
2018-10-21T06:01:19.191Z,18.83
2018-10-21T06:03:47.600Z,17.83
2018-10-21T06:06:15.879Z,18.77
2018-10-21T06:08:44.136Z,19.17
2018-10-21T06:11:12.430Z,19.00
2018-10-21T06:13:40.693Z,17.60
2018-10-21T06:16:09.047Z,17.40
2018-10-21T06:18:37.225Z,18.97
2018-10-21T06:21:06.133Z,18.93
2018-10-21T06:23:34.413Z,19.00
2018-10-21T06:26:02.677Z,18.33
2018-10-21T06:28:30.980Z,15.80
2018-10-21T06:30:59.241Z,20.17
2018-10-21T06:33:27.668Z,20.20
2018-10-21T06:35:55.958Z,19.80
2018-10-21T06:38:24.237Z,19.60
2018-10-21T06:40:52.487Z,21.00
2018-10-21T06:43:20.797Z,21.40
2018-10-21T06:45:49.039Z,19.90
2018-10-21T06:48:17.348Z,20.67
2018-10-21T06:50:45.590Z,21.10
2018-10-21T06:53:13.836Z,22.57
2018-10-21T06:55:42.107Z,21.93
2018-10-21T06:58:10.377Z,21.97
2018-10-21T07:00:38.645Z,21.90
2018-10-21T07:03:06.908Z,23.27
2018-10-21T07:06:19.061Z,21.90
2018-10-21T07:08:48.049Z,23.37
2018-10-21T07:11:16.340Z,24.07
2018-10-21T07:13:44.772Z,25.20
2018-10-21T07:16:13.323Z,24.60
2018-10-21T07:18:42.161Z,27.07
2018-10-21T07:21:10.464Z,26.53
2018-10-21T07:23:39.116Z,27.03
2018-10-21T07:26:07.378Z,28.13
2018-10-21T07:28:35.693Z,29.77
2018-10-21T07:31:04.172Z,27.37
2018-10-21T07:33:32.433Z,30.03
2018-10-21T07:36:00.712Z,29.40
2018-10-21T07:38:28.965Z,31.00
2018-10-21T07:40:57.258Z,28.60
2018-10-21T07:43:25.518Z,32.07
2018-10-21T07:45:53.817Z,31.63
2018-10-21T07:48:22.099Z,30.90
2018-10-21T07:50:50.376Z,29.13
2018-10-21T07:53:18.726Z,32.23
2018-10-21T07:55:47.038Z,34.23
2018-10-21T07:58:15.268Z,33.67
2018-10-21T08:00:43.701Z,33.20
2018-10-21T08:03:11.945Z,32.43
2018-10-21T08:05:51.485Z,33.33
2018-10-21T08:08:23.842Z,35.13
2018-10-21T08:10:52.258Z,33.87
2018-10-21T08:13:21.777Z,34.13
2018-10-21T08:15:50.263Z,34.33
2018-10-21T08:18:18.583Z,35.50
2018-10-21T08:20:48.146Z,33.67
2018-10-21T08:23:17.477Z,36.87
2018-10-21T08:25:47.161Z,35.13
2018-10-21T08:28:15.693Z,35.83
2018-10-21T08:30:43.964Z,36.27
2018-10-21T08:33:12.262Z,35.70
2018-10-21T08:35:40.565Z,34.97
2018-10-21T08:38:08.973Z,37.67
2018-10-21T08:40:37.397Z,37.63
2018-10-21T08:43:05.811Z,35.87
2018-10-21T08:45:34.081Z,36.00
2018-10-21T08:48:02.404Z,37.10
2018-10-21T08:50:30.646Z,36.80
2018-10-21T08:52:58.892Z,37.50
2018-10-21T08:55:27.187Z,37.67
2018-10-21T08:57:55.506Z,38.07
2018-10-21T09:00:23.844Z,38.00
2018-10-21T09:02:52.090Z,38.90
2018-10-21T09:05:20.398Z,39.00
2018-10-21T09:07:48.661Z,37.97
2018-10-21T09:10:17.952Z,39.97
2018-10-21T09:12:46.157Z,39.97
2018-10-21T09:15:15.808Z,40.27
2018-10-21T09:17:44.045Z,40.80
2018-10-21T09:20:14.136Z,41.10
2018-10-21T09:22:42.594Z,43.47
2018-10-21T09:25:11.883Z,43.47
2018-10-21T09:27:40.996Z,44.23
2018-10-21T09:30:10.901Z,42.93
2018-10-21T09:32:39.229Z,44.23
2018-10-21T09:35:09.122Z,45.23
2018-10-21T09:37:37.409Z,44.87
2018-10-21T09:40:07.247Z,46.43
2018-10-21T09:42:35.484Z,45.80
2018-10-21T09:45:03.871Z,45.83
2018-10-21T09:47:32.143Z,42.83
2018-10-21T09:50:00.538Z,46.13
2018-10-21T09:52:28.787Z,46.00
2018-10-21T09:54:57.196Z,45.13
2018-10-21T09:57:25.445Z,44.77
2018-10-21T09:59:53.749Z,47.10
2018-10-21T10:02:27.369Z,44.47
2018-10-21T10:04:55.737Z,46.10
2018-10-21T10:07:24.018Z,44.47
2018-10-21T10:09:52.437Z,44.27
2018-10-21T10:12:22.042Z,45.73
2018-10-21T10:14:50.317Z,44.20
2018-10-21T10:17:18.598Z,43.73
2018-10-21T10:19:46.906Z,42.23
2018-10-21T10:22:15.314Z,41.80
2018-10-21T10:24:43.445Z,43.43
2018-10-21T10:27:11.822Z,40.73
2018-10-21T10:29:40.176Z,40.07
2018-10-21T10:32:08.456Z,39.03
2018-10-21T10:34:36.733Z,40.60
2018-10-21T10:37:05.220Z,39.80
2018-10-21T10:39:33.470Z,38.90
2018-10-21T10:42:01.862Z,38.67
2018-10-21T10:44:30.054Z,37.83
2018-10-21T10:46:58.316Z,39.80
2018-10-21T10:49:26.582Z,38.57
2018-10-21T10:51:54.880Z,37.03
2018-10-21T10:54:23.152Z,40.03
2018-10-21T10:56:51.373Z,37.23
2018-10-21T10:59:19.637Z,38.03
2018-10-21T11:01:48.029Z,35.90
2018-10-21T11:04:16.250Z,37.57
2018-10-21T11:06:44.376Z,38.67
2018-10-21T11:09:12.708Z,36.63
2018-10-21T11:11:41.085Z,35.53
2018-10-21T11:14:09.416Z,35.10
2018-10-21T11:16:37.672Z,37.20
2018-10-21T11:19:06.001Z,31.83
2018-10-21T11:21:34.226Z,33.13
2018-10-21T11:24:02.484Z,35.53
2018-10-21T11:26:30.709Z,32.37
2018-10-21T11:28:58.993Z,32.23
2018-10-21T11:31:27.245Z,32.30
2018-10-21T11:33:55.589Z,35.17
2018-10-21T11:36:23.761Z,32.70
2018-10-21T11:38:52.181Z,30.20
2018-10-21T11:41:20.513Z,32.53
2018-10-21T11:43:48.760Z,34.37
2018-10-21T11:46:17.126Z,33.57
2018-10-21T11:48:45.290Z,31.40
2018-10-21T11:51:13.560Z,34.70
2018-10-21T11:53:41.857Z,33.93
2018-10-21T11:56:10.122Z,31.93
2018-10-21T11:58:38.368Z,31.90
2018-10-21T12:01:06.701Z,31.70
2018-10-21T12:03:34.958Z,31.90
2018-10-21T12:06:03.224Z,33.10
2018-10-21T12:08:31.472Z,33.43
2018-10-21T12:10:59.746Z,31.67
2018-10-21T12:13:27.973Z,30.87
2018-10-21T12:15:56.278Z,32.70
2018-10-21T12:18:24.540Z,32.03
2018-10-21T12:20:52.754Z,33.30
2018-10-21T12:23:21.043Z,35.63
2018-10-21T12:25:49.289Z,34.20
2018-10-21T12:28:17.562Z,33.70
2018-10-21T12:30:45.767Z,33.37
2018-10-21T12:33:14.024Z,32.17
2018-10-21T12:35:42.252Z,33.80
2018-10-21T12:38:10.559Z,32.03
2018-10-21T12:40:38.775Z,32.93
2018-10-21T12:43:07.095Z,31.50
2018-10-21T12:45:35.683Z,32.67
2018-10-21T12:48:03.809Z,33.87
2018-10-21T12:50:32.089Z,34.60
2018-10-21T12:53:00.400Z,33.90
2018-10-21T12:55:28.600Z,27.97
2018-10-21T12:57:57.041Z,26.70
2018-10-21T13:00:25.287Z,25.53
2018-10-21T13:02:53.569Z,25.50
2018-10-21T13:05:21.862Z,24.27
2018-10-21T13:07:50.134Z,23.27
2018-10-21T13:10:18.453Z,23.93
2018-10-21T13:12:46.756Z,26.50
2018-10-21T13:15:14.952Z,21.13
2018-10-21T13:17:43.356Z,23.17
2018-10-21T13:20:11.733Z,22.90
2018-10-21T13:22:40.006Z,21.17
2018-10-21T13:25:08.421Z,20.23
2018-10-21T13:27:36.629Z,19.10
2018-10-21T13:30:05.706Z,19.30
2018-10-21T13:32:34.033Z,16.93
2018-10-21T13:35:02.314Z,18.43
2018-10-21T13:37:30.586Z,19.33
2018-10-21T13:39:58.913Z,19.50
2018-10-21T13:42:27.340Z,18.37
2018-10-21T13:44:55.625Z,19.43
2018-10-21T13:47:23.880Z,16.73
2018-10-21T13:49:52.191Z,18.87
2018-10-21T13:52:20.510Z,18.27
2018-10-21T13:54:48.776Z,20.50
2018-10-21T13:57:17.168Z,20.00
2018-10-21T13:59:45.564Z,20.03
2018-10-21T14:02:13.972Z,21.03
2018-10-21T14:04:42.430Z,22.67
2018-10-21T14:07:10.865Z,23.57
2018-10-21T14:09:39.169Z,24.87
2018-10-21T14:12:07.430Z,22.97
2018-10-21T14:14:35.954Z,20.10
2018-10-21T14:17:04.350Z,19.93
2018-10-21T14:19:32.711Z,20.63
2018-10-21T14:22:01.022Z,19.07
2018-10-21T14:24:29.526Z,20.53
2018-10-21T14:26:58.065Z,20.97
2018-10-21T14:29:26.444Z,17.67
2018-10-21T14:31:54.733Z,18.73
2018-10-21T14:34:23.149Z,18.60
2018-10-21T14:36:51.538Z,19.83
2018-10-21T14:39:19.876Z,19.47
2018-10-21T14:41:48.263Z,19.90
2018-10-21T14:44:16.625Z,18.87
2018-10-21T14:46:44.910Z,19.13
2018-10-21T14:49:13.269Z,19.20
2018-10-21T14:51:41.523Z,19.10
2018-10-21T14:54:09.884Z,17.03
2018-10-21T14:56:38.101Z,16.87
2018-10-21T14:59:06.495Z,16.93
2018-10-21T15:01:34.811Z,18.37
2018-10-21T15:04:03.248Z,18.27
2018-10-21T15:06:31.528Z,16.93
2018-10-21T15:08:59.795Z,17.27
2018-10-21T15:11:28.122Z,16.57
2018-10-21T15:13:56.480Z,16.00
2018-10-21T15:16:24.749Z,15.97
2018-10-21T15:18:53.095Z,15.63
2018-10-21T15:21:21.600Z,16.80
2018-10-21T15:23:50.077Z,19.40
2018-10-21T15:26:18.368Z,16.93
2018-10-21T15:28:46.622Z,17.20
2018-10-21T15:31:15.144Z,17.13
2018-10-21T15:33:43.691Z,16.73
2018-10-21T15:36:12.114Z,18.10
2018-10-21T15:38:40.461Z,19.47
2018-10-21T15:41:09.178Z,20.33
2018-10-21T15:43:37.609Z,19.47
2018-10-21T15:46:06.235Z,19.13
2018-10-21T15:48:34.521Z,25.93
2018-10-21T15:51:03.269Z,25.63
2018-10-21T15:53:31.534Z,20.80
2018-10-21T15:55:59.925Z,17.80
2018-10-21T15:58:28.207Z,18.50
2018-10-21T16:00:56.469Z,22.17
2018-10-21T16:03:24.919Z,20.17
2018-10-21T16:05:53.276Z,18.50
2018-10-21T16:08:21.555Z,17.50
2018-10-21T16:10:49.838Z,16.83
2018-10-21T16:13:18.079Z,16.73
2018-10-21T16:15:46.326Z,19.30
2018-10-21T16:18:14.713Z,16.87
2018-10-21T16:20:43.007Z,18.70
2018-10-21T16:23:11.313Z,16.70
2018-10-21T16:25:39.668Z,17.13
2018-10-21T16:28:08.018Z,17.93
2018-10-21T16:30:36.309Z,16.53
2018-10-21T16:33:05.060Z,17.90
2018-10-21T16:35:33.476Z,19.27
2018-10-21T16:38:01.728Z,18.30
2018-10-21T16:40:30.221Z,24.00
2018-10-21T16:42:58.601Z,19.63
2018-10-21T16:45:26.980Z,23.63
2018-10-21T16:47:55.612Z,19.03
2018-10-21T16:50:23.968Z,20.47
2018-10-21T16:52:52.309Z,21.60
2018-10-21T16:55:20.619Z,23.23
2018-10-21T16:57:48.873Z,23.83
2018-10-21T17:00:18.344Z,21.93
2018-10-21T17:02:46.554Z,21.47
2018-10-21T17:05:14.917Z,22.33
2018-10-21T17:07:43.100Z,24.17
2018-10-21T17:10:12.121Z,22.70
2018-10-21T17:12:40.105Z,22.47
2018-10-21T17:15:09.557Z,23.13
2018-10-21T17:17:38.366Z,25.70
2018-10-21T17:20:09.113Z,25.43
2018-10-21T17:22:37.650Z,22.37
2018-10-21T17:25:06.494Z,23.20
2018-10-21T17:27:34.822Z,24.70
2018-10-21T17:30:03.201Z,26.07
2018-10-21T17:32:31.506Z,22.93
2018-10-21T17:34:59.768Z,22.67
2018-10-21T17:37:28.161Z,23.10
2018-10-21T17:39:56.482Z,22.80
2018-10-21T17:42:24.737Z,21.70
2018-10-21T17:44:52.981Z,21.70
2018-10-21T17:47:21.253Z,26.37
2018-10-21T17:49:49.567Z,22.27
2018-10-21T17:52:17.987Z,22.23
2018-10-21T17:54:46.165Z,22.90
2018-10-21T17:57:14.580Z,22.13
2018-10-21T17:59:42.904Z,20.87
2018-10-21T18:02:11.230Z,21.57
2018-10-21T18:04:39.533Z,21.30
2018-10-21T18:07:07.898Z,22.30
2018-10-21T18:09:36.184Z,22.00
2018-10-21T18:12:04.461Z,20.90
2018-10-21T18:14:32.800Z,21.50
2018-10-21T18:17:01.377Z,21.30
2018-10-21T18:19:29.637Z,20.87
2018-10-21T18:21:57.917Z,23.57
2018-10-21T18:24:26.212Z,21.87
2018-10-21T18:26:54.565Z,22.00
2018-10-21T18:29:22.869Z,21.73
2018-10-21T18:31:51.226Z,22.63
2018-10-21T18:34:19.465Z,22.47
2018-10-21T18:36:47.721Z,21.20
2018-10-21T18:39:15.998Z,21.50
2018-10-21T18:41:44.261Z,20.90
2018-10-21T18:44:12.553Z,22.90
2018-10-21T18:46:40.838Z,20.97
2018-10-21T18:49:09.184Z,20.40
2018-10-21T18:51:37.578Z,21.27
2018-10-21T18:54:05.900Z,20.60
2018-10-21T18:56:34.245Z,19.63
2018-10-21T18:59:02.522Z,19.33
2018-10-21T19:01:30.953Z,21.40
2018-10-21T19:03:59.426Z,20.63
2018-10-21T19:06:27.632Z,20.10
2018-10-21T19:08:55.893Z,20.27
2018-10-21T19:11:24.181Z,20.33
2018-10-21T19:13:52.690Z,19.10
2018-10-21T19:16:21.230Z,18.97
2018-10-21T19:18:49.529Z,18.87
2018-10-21T19:21:17.795Z,18.43
2018-10-21T19:23:46.214Z,18.60
2018-10-21T19:26:14.637Z,18.53
2018-10-21T19:28:43.017Z,20.07
2018-10-21T19:31:11.371Z,18.27
2018-10-21T19:33:39.697Z,18.20
2018-10-21T19:36:07.950Z,18.30
2018-10-21T19:38:36.226Z,17.90
2018-10-21T19:41:04.538Z,18.50
2018-10-21T19:43:32.858Z,18.73
2018-10-21T19:46:01.163Z,18.10
2018-10-21T19:48:29.508Z,18.57
2018-10-21T19:50:57.827Z,17.60
2018-10-21T19:53:26.101Z,16.00
2018-10-21T19:55:54.368Z,17.87
2018-10-21T19:58:22.755Z,16.07
2018-10-21T20:00:51.025Z,17.23
2018-10-21T20:03:19.294Z,16.90
2018-10-21T20:05:47.653Z,17.47
2018-10-21T20:08:15.921Z,16.07
2018-10-21T20:10:44.187Z,15.77
2018-10-21T20:13:12.604Z,16.33
2018-10-21T20:15:40.965Z,16.27
2018-10-21T20:18:09.256Z,16.77
2018-10-21T20:20:37.587Z,16.10
2018-10-21T20:23:06.186Z,17.03
2018-10-21T20:25:34.510Z,16.97
2018-10-21T20:28:02.823Z,16.37
2018-10-21T20:30:31.093Z,16.47
2018-10-21T20:32:59.455Z,16.13
2018-10-21T20:35:27.677Z,15.70
2018-10-21T20:37:55.993Z,15.50
2018-10-21T20:40:24.271Z,15.87
2018-10-21T20:42:52.561Z,16.33
2018-10-21T20:45:20.833Z,17.70
2018-10-21T20:47:49.105Z,16.27
2018-10-21T20:50:17.397Z,15.80
2018-10-21T20:52:45.684Z,16.13
2018-10-21T20:55:13.937Z,15.13
2018-10-21T20:57:42.206Z,15.93
2018-10-21T21:00:10.509Z,14.80
2018-10-21T21:02:38.758Z,15.37
2018-10-21T21:05:08.175Z,15.43
2018-10-21T21:07:36.444Z,15.57
2018-10-21T21:10:05.883Z,16.10
2018-10-21T21:12:34.128Z,14.90
2018-10-21T21:15:02.501Z,16.10
2018-10-21T21:17:30.793Z,15.70
2018-10-21T21:19:59.073Z,15.50
2018-10-21T21:22:27.383Z,15.60
2018-10-21T21:24:55.641Z,15.20
2018-10-21T21:27:23.917Z,16.03
2018-10-21T21:29:52.221Z,15.33
2018-10-21T21:32:20.481Z,16.33
2018-10-21T21:34:48.766Z,16.93
2018-10-21T21:37:17.023Z,16.03
2018-10-21T21:39:45.298Z,15.73
2018-10-21T21:42:13.685Z,18.47
2018-10-21T21:44:41.877Z,16.57
2018-10-21T21:47:10.172Z,16.37
2018-10-21T21:49:38.449Z,17.40
2018-10-21T21:52:06.752Z,16.87
2018-10-21T21:54:34.965Z,17.43
2018-10-21T21:57:03.297Z,17.97
2018-10-21T21:59:31.626Z,18.23
2018-10-21T22:01:59.902Z,17.53
2018-10-21T22:04:28.160Z,18.77
2018-10-21T22:06:56.433Z,17.50
2018-10-21T22:09:24.757Z,17.37
2018-10-21T22:11:53.091Z,18.90
2018-10-21T22:14:21.396Z,18.67
2018-10-21T22:16:49.749Z,19.57
2018-10-21T22:19:18.041Z,20.50
2018-10-21T22:21:46.304Z,21.07
2018-10-21T22:24:14.587Z,21.20
2018-10-21T22:26:42.960Z,20.37
2018-10-21T22:29:11.247Z,22.13
2018-10-21T22:31:39.532Z,22.13
2018-10-21T22:34:07.905Z,23.07
2018-10-21T22:36:36.090Z,22.40
2018-10-21T22:39:05.421Z,21.77
2018-10-21T22:41:33.673Z,23.27
2018-10-21T22:44:01.963Z,24.37
2018-10-21T22:46:30.262Z,24.17
2018-10-21T22:48:58.473Z,23.60
2018-10-21T22:51:26.757Z,24.07
2018-10-21T22:53:55.155Z,25.17
2018-10-21T22:56:23.409Z,24.70
2018-10-21T22:58:51.871Z,25.17
2018-10-21T23:01:20.157Z,23.53
2018-10-21T23:03:48.548Z,23.53
2018-10-21T23:06:16.927Z,23.47
2018-10-21T23:08:45.092Z,23.53
2018-10-21T23:11:13.329Z,22.80
2018-10-21T23:13:41.593Z,23.30
2018-10-21T23:16:10.046Z,22.83
2018-10-21T23:18:38.290Z,21.57
2018-10-21T23:21:06.541Z,24.57
2018-10-21T23:23:34.830Z,23.57
2018-10-21T23:26:03.106Z,23.53
2018-10-21T23:28:31.385Z,22.57
2018-10-21T23:30:59.729Z,21.67
2018-10-21T23:33:28.081Z,23.20
2018-10-21T23:35:56.460Z,22.30
2018-10-21T23:38:24.800Z,23.43
2018-10-21T23:40:53.177Z,22.17
2018-10-21T23:43:21.432Z,21.90
2018-10-21T23:45:49.672Z,23.83
2018-10-21T23:48:17.979Z,22.90
2018-10-21T23:50:46.213Z,22.03
2018-10-21T23:53:14.489Z,21.53
2018-10-21T23:55:42.917Z,23.60
2018-10-21T23:58:11.230Z,21.70
